Time;durP1;ratioP1;P1;durP2;ratioP2;P2;SDS_P1;SDS_P2;PMS_P1;PMS_P2;Temp;Humidity;BMP_temperature;BMP_pressure;BME280_temperature;BME280_humidity;BME280_pressure;Samples;Min_cycle;Max_cycle;Signal;HPM_P1;HPM_P2
2022/09/04 00:02:15;;;;;;;16.00;8.88;;;;;;;17.52;88.54;101264.47;5051969;28;20053;-56
2022/09/04 00:04:50;;;;;;;12.95;8.23;;;;;;;17.50;89.55;101272.59;5052048;28;20049;-55
2022/09/04 00:07:26;;;;;;;11.52;8.05;;;;;;;17.47;88.80;101270.22;5051757;28;20048;-55
2022/09/04 00:10:08;;;;;;;13.38;8.27;;;;;;;17.47;89.62;101272.88;5051859;28;20082;-54
2022/09/04 00:12:45;;;;;;;11.65;8.60;;;;;;;17.49;90.30;101275.38;5051935;28;20060;-52
2022/09/04 00:15:18;;;;;;;10.95;8.90;;;;;;;17.50;91.01;101283.22;5052028;28;20392;-53
2022/09/04 00:17:54;;;;;;;13.90;9.75;;;;;;;17.51;92.66;101282.25;5050314;28;20045;-59
2022/09/04 00:20:36;;;;;;;14.70;9.63;;;;;;;17.49;93.68;101283.38;5051684;28;20036;-60
2022/09/04 00:23:13;;;;;;;13.68;10.45;;;;;;;17.50;93.70;101279.75;5051780;28;20084;-53
2022/09/04 00:25:53;;;;;;;15.13;11.00;;;;;;;17.53;94.40;101287.44;5051876;28;20052;-57
2022/09/04 00:28:32;;;;;;;14.15;10.45;;;;;;;17.49;94.90;101286.88;5050355;28;20055;-59
2022/09/04 00:31:07;;;;;;;15.45;11.13;;;;;;;17.49;94.11;101286.88;5051597;28;20488;-59
2022/09/04 00:33:44;;;;;;;13.82;10.60;;;;;;;17.52;94.72;101285.75;5051556;28;20522;-56
2022/09/04 00:36:16;;;;;;;14.85;11.00;;;;;;;17.53;95.05;101284.78;5051747;28;20056;-53
2022/09/04 00:38:48;;;;;;;14.63;10.85;;;;;;;17.48;95.28;101292.31;5051212;28;20496;-49
2022/09/04 00:41:29;;;;;;;13.55;10.93;;;;;;;17.43;96.34;101291.88;5051209;28;20048;-55
2022/09/04 00:44:13;;;;;;;13.63;10.85;;;;;;;17.40;96.45;101303.63;5051164;28;20057;-55
2022/09/04 00:47:10;;;;;;;14.38;10.80;;;;;;;17.38;96.93;101295.78;5051609;28;20045;-55
2022/09/04 00:50:10;;;;;;;13.30;11.00;;;;;;;17.39;97.88;101307.25;5051631;28;20125;-59
2022/09/04 00:53:01;;;;;;;15.80;10.93;;;;;;;17.40;98.75;101308.94;5051457;28;20472;-59
2022/09/04 00:55:55;;;;;;;15.98;11.32;;;;;;;17.33;98.66;101308.63;5051543;28;20048;-56
2022/09/04 00:58:42;;;;;;;13.88;10.35;;;;;;;17.30;97.59;101316.88;5051417;28;20053;-55
2022/09/04 01:01:19;;;;;;;15.35;10.88;;;;;;;17.30;98.42;101319.53;5051348;28;20065;-59
2022/09/04 01:04:15;;;;;;;15.27;12.15;;;;;;;17.27;98.90;101313.63;5050155;28;20086;-58
2022/09/04 01:06:56;;;;;;;14.10;11.45;;;;;;;17.25;100.00;101319.09;5051354;28;20109;-59
2022/09/04 01:09:56;;;;;;;14.63;11.07;;;;;;;17.24;100.00;101325.38;5051317;28;20041;-59
2022/09/04 01:12:34;;;;;;;14.63;12.00;;;;;;;17.27;100.00;101326.94;5051111;28;20049;-55
2022/09/04 01:15:14;;;;;;;16.85;12.55;;;;;;;17.18;100.00;101324.09;5051335;28;20055;-55
2022/09/04 01:17:53;;;;;;;15.82;11.85;;;;;;;17.18;100.00;101320.59;5051115;28;20051;-59
2022/09/04 01:20:30;;;;;;;19.60;13.35;;;;;;;17.13;100.00;101320.16;5053671;28;20043;-59
2022/09/04 01:23:16;;;;;;;21.15;15.30;;;;;;;17.12;100.00;101323.78;5054999;28;20039;-56
2022/09/04 01:26:08;;;;;;;20.63;14.55;;;;;;;17.13;100.00;101333.44;5054886;28;20044;-58
2022/09/04 01:28:48;;;;;;;23.05;15.85;;;;;;;17.15;100.00;101337.66;5053436;28;20102;-59
2022/09/04 01:31:26;;;;;;;19.90;14.13;;;;;;;17.10;100.00;101338.97;5054951;28;20088;-54
2022/09/04 01:34:16;;;;;;;17.55;13.30;;;;;;;17.02;100.00;101329.03;5054303;28;20056;-54
2022/09/04 01:36:53;;;;;;;19.45;13.57;;;;;;;17.02;100.00;101332.50;5054792;28;20037;-56
2022/09/04 01:39:26;;;;;;;16.77;13.88;;;;;;;17.02;100.00;101342.31;5054798;28;20047;-59
2022/09/04 01:42:00;;;;;;;;;;;;;;;16.99;100.00;101342.59;5055248;28;20048;-59
2022/09/04 01:44:30;;;;;;;16.40;12.82;;;;;;;16.99;100.00;101337.28;5054440;28;19920;-59
2022/09/04 01:47:08;;;;;;;15.43;12.90;;;;;;;17.00;100.00;101344.25;5053468;28;20369;-56
2022/09/04 01:49:38;;;;;;;15.30;13.02;;;;;;;17.00;100.00;101344.25;5054550;28;20041;-54
2022/09/04 01:52:32;;;;;;;16.90;12.65;;;;;;;16.96;100.00;101343.69;5054484;28;20044;-59
2022/09/04 01:55:13;;;;;;;16.45;13.50;;;;;;;16.92;100.00;101350.22;5054448;28;20072;-59
2022/09/04 01:57:57;;;;;;;15.55;12.65;;;;;;;16.90;100.00;101350.31;5054262;28;20045;-58
2022/09/04 02:00:32;;;;;;;15.15;12.45;;;;;;;16.91;100.00;101348.53;5054377;28;20055;-59
2022/09/04 02:03:06;;;;;;;17.52;14.23;;;;;;;16.88;100.00;101354.91;5054061;28;20053;-55
2022/09/04 02:05:44;;;;;;;14.90;13.30;;;;;;;16.84;100.00;101352.66;5054063;28;20052;-59
2022/09/04 02:08:34;;;;;;;16.35;13.15;;;;;;;16.88;100.00;101356.72;5086108;28;20061;-54
2022/09/04 02:11:09;;;;;;;16.35;12.63;;;;;;;16.86;100.00;101361.31;5052522;28;20045;-55
2022/09/04 02:13:52;;;;;;;15.20;12.65;;;;;;;16.87;100.00;101363.84;5053764;28;20451;-59
2022/09/04 02:16:25;;;;;;;;;;;;;;;16.86;100.00;101358.66;5053225;28;20079;-50
2022/09/04 02:19:00;;;;;;;15.27;12.68;;;;;;;16.80;100.00;101356.53;5053485;28;19921;-54
2022/09/04 02:21:32;;;;;;;15.68;13.35;;;;;;;16.79;100.00;101362.81;5053375;28;20041;-59
2022/09/04 02:24:08;;;;;;;16.75;13.45;;;;;;;16.80;100.00;101367.16;5053441;28;20056;-55
2022/09/04 02:26:42;;;;;;;16.50;13.02;;;;;;;16.73;100.00;101365.00;5053387;28;20155;-56
2022/09/04 02:29:21;;;;;;;17.42;13.02;;;;;;;16.75;100.00;101364.88;5053488;28;20059;-59
2022/09/04 02:31:58;;;;;;;17.90;13.27;;;;;;;16.69;100.00;101371.53;5053341;28;20135;-53
2022/09/04 02:34:37;;;;;;;15.70;12.27;;;;;;;16.61;100.00;101373.16;5053373;28;20131;-55
2022/09/04 02:37:15;;;;;;;18.02;12.38;;;;;;;16.55;100.00;101374.47;5053307;28;20095;-55
2022/09/04 02:39:55;;;;;;;14.82;12.68;;;;;;;16.54;100.00;101376.31;5052238;28;20052;-55
2022/09/04 02:42:31;;;;;;;13.57;12.10;;;;;;;16.50;100.00;101372.22;5053777;28;20076;-59
2022/09/04 02:45:12;;;;;;;15.00;12.70;;;;;;;16.46;100.00;101370.78;5053170;28;20435;-58
2022/09/04 02:47:48;;;;;;;15.32;13.15;;;;;;;16.48;100.00;101370.66;5053563;28;20048;-59
2022/09/04 02:50:38;;;;;;;15.50;13.43;;;;;;;16.51;100.00;101373.03;5053533;28;20048;-58
2022/09/04 02:53:29;;;;;;;17.10;14.27;;;;;;;16.45;100.00;101370.91;5053324;28;20053;-60
2022/09/04 02:56:09;;;;;;;17.88;14.80;;;;;;;16.41;100.00;101370.31;5053235;28;20040;-54
2022/09/04 02:58:50;;;;;;;16.90;13.93;;;;;;;16.42;100.00;101376.47;5053221;28;20048;-52
2022/09/04 03:01:28;;;;;;;17.08;14.85;;;;;;;16.41;100.00;101370.31;5053280;28;20041;-59
2022/09/04 03:04:05;;;;;;;16.08;13.35;;;;;;;16.35;100.00;101378.78;5053070;28;20052;-59
2022/09/04 03:06:48;;;;;;;19.58;13.55;;;;;;;16.30;100.00;101367.69;5053152;28;20052;-58
2022/09/04 03:09:19;;;;;;;;;;;;;;;16.27;100.00;101382.03;5053621;28;20052;-58
2022/09/04 03:11:53;;;;;;;16.83;13.45;;;;;;;16.20;100.00;101379.03;5052899;28;19931;-53
2022/09/04 03:14:33;;;;;;;16.67;13.98;;;;;;;16.19;100.00;101392.44;5053033;28;20132;-58
2022/09/04 03:17:08;;;;;;;15.40;13.48;;;;;;;16.19;100.00;101390.63;5052883;28;20545;-58
2022/09/04 03:19:43;;;;;;;16.92;14.35;;;;;;;16.14;100.00;101394.59;5053054;28;20377;-56
2022/09/04 03:22:19;;;;;;;17.90;14.35;;;;;;;16.16;100.00;101398.00;5052899;28;20093;-59
2022/09/04 03:25:04;;;;;;;18.38;15.95;;;;;;;16.18;100.00;101404.00;5052510;28;21085;-55
2022/09/04 03:27:34;;;;;;;16.83;14.65;;;;;;;16.04;100.00;101405.13;5052872;28;20047;-59
2022/09/04 03:30:06;;;;;;;18.30;14.27;;;;;;;16.05;100.00;101412.94;5052403;28;20447;-59
2022/09/04 03:32:42;;;;;;;;;;;;;;;16.01;100.00;101406.19;5052817;28;20500;-55
2022/09/04 03:35:20;;;;;;;19.73;12.95;;;;;;;15.97;100.00;101409.22;5052481;28;19925;-58
2022/09/04 03:38:05;;;;;;;17.17;13.50;;;;;;;15.93;100.00;101405.97;5052267;28;20045;-53
2022/09/04 03:40:38;;;;;;;16.13;13.45;;;;;;;15.95;100.00;101411.16;5052482;28;20049;-50
2022/09/04 03:43:21;;;;;;;;;;;;;;;15.92;100.00;101406.91;5050888;28;20102;-59
2022/09/04 03:45:57;;;;;;;17.95;15.43;;;;;;;15.93;100.00;101419.22;5050674;28;19932;-58
2022/09/04 03:48:41;;;;;;;18.48;14.82;;;;;;;15.92;100.00;101411.41;5052347;28;20553;-58
2022/09/04 03:51:19;;;;;;;17.65;14.90;;;;;;;15.94;100.00;101417.41;5052238;28;20037;-58
2022/09/04 03:54:00;;;;;;;16.75;14.45;;;;;;;15.85;100.00;101414.53;5051998;28;20064;-60
2022/09/04 03:56:50;;;;;;;17.90;14.82;;;;;;;15.83;100.00;101418.28;5052178;28;20102;-59
2022/09/04 03:59:32;;;;;;;19.52;14.73;;;;;;;15.78;100.00;101415.94;5052076;28;20159;-52
2022/09/04 04:02:07;;;;;;;20.17;17.08;;;;;;;15.82;100.00;101414.78;5052012;28;20056;-60
2022/09/04 04:05:07;;;;;;;17.85;15.52;;;;;;;15.78;100.00;101415.09;5051927;28;20045;-55
2022/09/04 04:07:46;;;;;;;19.30;15.75;;;;;;;15.76;100.00;101407.28;5052135;28;20538;-53
2022/09/04 04:10:29;;;;;;;19.05;15.55;;;;;;;15.75;100.00;101407.38;5051973;28;20041;-59
2022/09/04 04:13:20;;;;;;;20.77;15.05;;;;;;;15.74;100.00;101413.66;5052069;28;20045;-58
2022/09/04 04:16:07;;;;;;;20.10;15.75;;;;;;;15.75;100.00;101416.19;5051775;28;20374;-55
2022/09/04 04:18:53;;;;;;;19.63;16.52;;;;;;;15.75;100.00;101426.78;5051814;28;20037;-55
2022/09/04 04:21:37;;;;;;;21.05;15.95;;;;;;;15.72;100.00;101422.56;5051654;28;20060;-60
2022/09/04 04:24:30;;;;;;;18.60;16.15;;;;;;;15.72;100.00;101425.22;5051850;28;20041;-50
2022/09/04 04:27:11;;;;;;;19.48;16.05;;;;;;;15.72;100.00;101432.34;5051860;28;20045;-54
2022/09/04 04:29:57;;;;;;;19.60;16.40;;;;;;;15.69;100.00;101444.03;5051673;28;20047;-53
2022/09/04 04:32:39;;;;;;;20.30;15.85;;;;;;;15.67;100.00;101439.81;5051794;28;20052;-58
2022/09/04 04:35:15;;;;;;;18.10;16.00;;;;;;;15.66;100.00;101444.25;5051619;28;20061;-58
2022/09/04 04:37:58;;;;;;;18.38;16.08;;;;;;;15.68;100.00;101457.41;5051366;28;20400;-52
2022/09/04 04:40:43;;;;;;;19.75;16.50;;;;;;;15.59;100.00;101456.28;5051548;28;20045;-52
2022/09/04 04:43:19;;;;;;;19.33;15.57;;;;;;;15.61;100.00;101454.38;5051283;28;20389;-50
2022/09/04 04:45:53;;;;;;;18.85;15.68;;;;;;;15.62;100.00;101448.09;5051056;28;20049;-55
2022/09/04 04:49:06;;;;;;;19.40;15.88;;;;;;;15.61;100.00;101450.88;5051469;28;20048;-58
2022/09/04 04:51:50;;;;;;;20.63;16.15;;;;;;;15.62;100.00;101460.53;5051439;28;20056;-58
2022/09/04 04:54:34;;;;;;;19.67;16.65;;;;;;;15.58;100.00;101459.91;5052478;28;20373;-53
2022/09/04 04:57:13;;;;;;;19.88;16.33;;;;;;;15.60;100.00;101462.44;5055394;28;20053;-54
2022/09/04 04:59:53;;;;;;;19.20;16.25;;;;;;;15.59;100.00;101458.94;5055581;28;20045;-59
2022/09/04 05:02:29;;;;;;;18.90;16.88;;;;;;;15.59;100.00;101460.75;5055447;28;20124;-59
2022/09/04 05:05:05;;;;;;;18.85;16.85;;;;;;;15.56;100.00;101464.50;5055295;28;20057;-59
2022/09/04 05:07:40;;;;;;;18.73;16.23;;;;;;;15.55;100.00;101473.41;5055446;28;20064;-58
2022/09/04 05:10:18;;;;;;;20.05;16.58;;;;;;;15.57;100.00;101470.63;5055203;28;20060;-58
2022/09/04 05:12:57;;;;;;;22.42;16.98;;;;;;;15.58;100.00;101473.16;5055127;28;20049;-58
2022/09/04 05:15:34;;;;;;;19.88;16.73;;;;;;;15.59;100.00;101479.31;5055022;28;20063;-55
2022/09/04 05:18:28;;;;;;;22.73;17.58;;;;;;;15.64;100.00;101483.31;5055145;28;20510;-54
2022/09/04 05:21:05;;;;;;;20.95;17.08;;;;;;;15.64;100.00;101488.59;5055004;28;20388;-54
2022/09/04 05:23:40;;;;;;;20.15;17.98;;;;;;;15.66;100.00;101485.84;5055080;28;20044;-55
2022/09/04 05:26:23;;;;;;;19.88;17.77;;;;;;;15.62;100.00;101495.81;5054914;28;20127;-58
2022/09/04 05:28:59;;;;;;;21.52;17.25;;;;;;;15.63;100.00;101497.50;5054669;28;20453;-54
2022/09/04 05:31:37;;;;;;;20.90;18.05;;;;;;;15.60;100.00;101497.75;5054589;28;20071;-54
2022/09/04 05:34:13;;;;;;;21.40;17.88;;;;;;;15.63;100.00;101505.47;5054659;28;20439;-60
2022/09/04 05:36:48;;;;;;;19.83;16.52;;;;;;;15.69;100.00;101512.97;5053259;28;20053;-58
2022/09/04 05:39:27;;;;;;;21.02;18.50;;;;;;;15.71;100.00;101516.31;5054857;28;20148;-55
2022/09/04 05:42:44;;;;;;;20.08;17.80;;;;;;;15.76;100.00;101504.53;5054824;28;20049;-58
2022/09/04 05:45:24;;;;;;;19.65;17.55;;;;;;;15.76;100.00;101513.34;5036439;28;20045;-55
2022/09/04 05:48:07;;;;;;;21.13;17.83;;;;;;;15.78;100.00;101518.53;5054935;28;20041;-56
2022/09/04 05:51:14;;;;;;;20.83;18.50;;;;;;;15.81;100.00;101523.63;5054775;28;20045;-52
2022/09/04 05:54:00;;;;;;;23.80;18.13;;;;;;;15.87;100.00;101525.81;5033403;28;20060;-58
2022/09/04 05:57:04;;;;;;;20.92;18.23;;;;;;;15.92;100.00;101528.94;5054774;28;20504;-57
2022/09/04 05:59:58;;;;;;;21.48;17.88;;;;;;;15.96;100.00;101532.22;5053154;28;20052;-57
2022/09/04 06:02:48;;;;;;;20.90;18.55;;;;;;;16.00;100.00;101541.63;5054338;28;20128;-59
2022/09/04 06:05:27;;;;;;;22.00;19.52;;;;;;;16.01;100.00;101538.84;5041866;28;20061;-60
2022/09/04 06:08:06;;;;;;;20.42;18.10;;;;;;;16.12;100.00;101545.13;5054353;28;20139;-54
2022/09/04 06:10:46;;;;;;;23.90;19.50;;;;;;;16.11;100.00;101544.28;5054444;28;20500;-58
2022/09/04 06:13:45;;;;;;;20.27;17.98;;;;;;;16.17;100.00;101542.94;5052997;28;20064;-58
2022/09/04 06:16:35;;;;;;;21.23;18.70;;;;;;;16.25;100.00;101548.50;5054087;28;20060;-54
2022/09/04 06:19:21;;;;;;;23.20;19.27;;;;;;;16.31;100.00;101542.72;5054228;28;20376;-59
2022/09/04 06:22:30;;;;;;;22.23;19.65;;;;;;;16.39;100.00;101542.13;5054111;28;20124;-52
2022/09/04 06:25:32;;;;;;;22.10;19.70;;;;;;;16.50;100.00;101542.13;5053791;28;20419;-52
2022/09/04 06:28:23;;;;;;;22.23;18.95;;;;;;;16.62;100.00;101542.97;5053455;28;20045;-53
2022/09/04 06:31:01;;;;;;;21.95;18.75;;;;;;;16.71;100.00;101546.69;5053588;28;20049;-54
2022/09/04 06:33:56;;;;;;;24.08;19.50;;;;;;;16.79;100.00;101549.56;5053567;28;20071;-51
2022/09/04 06:36:41;;;;;;;20.92;18.73;;;;;;;16.90;100.00;101556.69;5053870;28;20511;-59
2022/09/04 06:39:27;;;;;;;21.80;18.95;;;;;;;16.98;100.00;101548.94;5053946;28;20048;-60
2022/09/04 06:42:11;;;;;;;23.27;18.70;;;;;;;17.11;100.00;101554.13;5053549;28;20068;-56
2022/09/04 06:44:49;;;;;;;21.42;18.70;;;;;;;17.17;100.00;101552.78;5053301;28;20103;-54
2022/09/04 06:47:25;;;;;;;22.17;19.48;;;;;;;17.28;100.00;101550.06;5053007;28;20045;-60
2022/09/04 06:50:14;;;;;;;22.40;19.55;;;;;;;17.36;100.00;101563.56;5053875;28;20045;-56
2022/09/04 06:52:54;;;;;;;21.75;18.52;;;;;;;17.52;100.00;101567.59;5051895;28;20059;-59
2022/09/04 06:55:29;;;;;;;20.30;17.45;;;;;;;17.66;100.00;101574.44;5053374;28;20060;-55
2022/09/04 06:58:20;;;;;;;21.92;17.27;;;;;;;17.82;100.00;101568.66;5053306;28;20045;-54
2022/09/04 07:00:53;;;;;;;23.25;18.13;;;;;;;17.94;100.00;101569.47;5053231;28;20040;-56
2022/09/04 07:03:34;;;;;;;19.88;17.02;;;;;;;18.11;100.00;101568.06;5053139;28;20098;-55
2022/09/04 07:06:11;;;;;;;20.73;17.27;;;;;;;18.26;100.00;101564.06;5053233;28;20455;-57
2022/09/04 07:08:54;;;;;;;19.35;15.68;;;;;;;18.42;100.00;101564.41;5053307;28;20041;-55
2022/09/04 07:11:36;;;;;;;20.93;16.90;;;;;;;18.57;100.00;101570.22;5053087;28;20041;-56
2022/09/04 07:14:44;;;;;;;19.23;15.57;;;;;;;18.76;100.00;101565.94;5053070;28;20124;-57
2022/09/04 07:17:23;;;;;;;17.77;15.05;;;;;;;18.98;100.00;101578.22;5047036;28;20119;-61
2022/09/04 07:20:03;;;;;;;20.52;15.90;;;;;;;19.11;100.00;101574.44;5052837;28;20053;-57
2022/09/04 07:23:01;;;;;;;22.38;15.68;;;;;;;19.30;100.00;101577.13;5052772;28;20128;-61
2022/09/04 07:25:39;;;;;;;17.33;14.40;;;;;;;19.50;100.00;101582.47;5052962;28;20037;-58
2022/09/04 07:28:20;;;;;;;19.17;15.27;;;;;;;19.74;100.00;101590.88;5052721;28;20075;-58
2022/09/04 07:30:53;;;;;;;18.08;14.57;;;;;;;19.79;100.00;101592.28;5052537;28;20053;-60
2022/09/04 07:33:31;;;;;;;18.42;14.55;;;;;;;19.88;100.00;101591.47;5052667;28;20044;-61
2022/09/04 07:36:08;;;;;;;17.83;14.68;;;;;;;19.87;100.00;101590.59;5052758;28;20396;-61
2022/09/04 07:38:46;;;;;;;17.60;14.85;;;;;;;20.01;100.00;101596.47;5052709;28;20479;-61
2022/09/04 07:41:24;;;;;;;17.00;13.25;;;;;;;20.17;100.00;101595.88;5052621;28;20040;-58
2022/09/04 07:44:02;;;;;;;16.38;14.43;;;;;;;20.38;100.00;101599.19;5052217;28;20056;-62
2022/09/04 07:46:43;;;;;;;15.30;12.68;;;;;;;20.64;100.00;101601.16;5052431;28;20504;-61
2022/09/04 07:49:18;;;;;;;13.52;11.10;;;;;;;20.91;100.00;101592.38;5052437;28;20044;-61
2022/09/04 07:51:55;;;;;;;15.35;12.30;;;;;;;21.02;97.57;101595.81;5052500;28;20056;-57
2022/09/04 07:54:42;;;;;;;14.57;11.77;;;;;;;21.18;98.58;101595.16;5052292;28;20045;-58
2022/09/04 07:57:36;;;;;;;14.50;11.48;;;;;;;21.39;95.98;101586.81;5052336;28;20037;-57
2022/09/04 08:00:08;;;;;;;13.93;10.90;;;;;;;21.63;96.87;101599.59;5052184;28;20124;-60
2022/09/04 08:02:55;;;;;;;13.75;11.38;;;;;;;21.92;93.77;101598.47;5052313;28;20123;-57
2022/09/04 08:05:27;;;;;;;12.43;10.25;;;;;;;22.00;93.06;101598.53;5052253;28;20435;-58
2022/09/04 08:08:12;;;;;;;14.38;11.20;;;;;;;22.21;91.12;101602.69;5052358;28;20048;-58
2022/09/04 08:10:59;;;;;;;13.25;10.30;;;;;;;22.39;92.31;101600.81;5052149;28;20045;-58
2022/09/04 08:13:46;;;;;;;14.32;10.70;;;;;;;22.57;87.87;101606.09;5052052;28;20041;-60
2022/09/04 08:16:28;;;;;;;11.68;9.98;;;;;;;22.78;88.04;101619.09;5051706;28;20063;-58
2022/09/04 08:19:10;;;;;;;12.13;10.15;;;;;;;22.79;86.58;101620.75;5051768;28;20051;-58
2022/09/04 08:21:44;;;;;;;13.55;9.88;;;;;;;22.98;89.92;101620.66;5051967;28;20049;-56
2022/09/04 08:24:40;;;;;;;12.65;9.98;;;;;;;23.11;90.58;101623.72;5052077;28;20396;-60
2022/09/04 08:27:20;;;;;;;13.75;10.07;;;;;;;23.35;88.81;101620.25;5046034;28;20156;-58
2022/09/04 08:30:02;;;;;;;13.35;9.98;;;;;;;23.49;86.98;101624.13;5051956;28;20381;-60
2022/09/04 08:33:01;;;;;;;14.98;10.80;;;;;;;23.57;84.57;101625.97;5051916;28;20115;-60
2022/09/04 08:35:33;;;;;;;12.77;9.57;;;;;;;23.79;85.11;101622.63;5048781;28;20088;-61
2022/09/04 08:38:27;;;;;;;12.13;9.07;;;;;;;23.92;83.80;101626.69;5051763;28;20047;-61
2022/09/04 08:41:29;;;;;;;12.57;8.98;;;;;;;23.96;81.74;101630.72;5051887;28;20041;-57
2022/09/04 08:44:26;;;;;;;11.20;7.85;;;;;;;24.29;81.97;101638.72;5051388;28;20539;-61
2022/09/04 08:47:17;;;;;;;12.10;9.20;;;;;;;24.56;79.74;101644.69;5051600;28;20041;-60
2022/09/04 08:50:22;;;;;;;13.07;10.07;;;;;;;24.48;77.52;101646.38;5051665;28;20045;-60
2022/09/04 08:53:27;;;;;;;13.80;10.07;;;;;;;24.74;78.13;101648.00;5019840;28;20523;-61
2022/09/04 08:56:21;;;;;;;12.25;9.05;;;;;;;24.87;76.06;101641.22;5051672;28;20069;-61
2022/09/04 08:59:25;;;;;;;12.05;8.75;;;;;;;25.00;78.96;101644.19;5051509;28;20043;-57
2022/09/04 09:02:31;;;;;;;12.20;9.30;;;;;;;25.25;74.24;101639.53;5051684;28;20056;-59
2022/09/04 09:05:32;;;;;;;12.70;8.68;;;;;;;25.44;74.39;101634.69;5051567;28;20048;-57
2022/09/04 09:08:36;;;;;;;11.68;8.13;;;;;;;25.57;73.26;101640.31;5051047;28;20049;-61
2022/09/04 09:11:42;;;;;;;12.90;8.40;;;;;;;25.73;73.07;101638.53;5051342;28;20059;-58
2022/09/04 09:14:47;;;;;;;13.30;8.88;;;;;;;25.88;71.99;101642.09;5051536;28;20037;-58
2022/09/04 09:17:36;;;;;;;13.93;8.63;;;;;;;26.13;69.93;101647.28;5051929;28;20052;-59
2022/09/04 09:20:25;;;;;;;12.30;7.60;;;;;;;26.19;71.03;101643.00;5051017;28;20135;-58
2022/09/04 09:23:17;;;;;;;11.80;7.93;;;;;;;26.50;71.09;101637.44;5051343;28;20059;-61
2022/09/04 09:26:16;;;;;;;11.30;7.55;;;;;;;26.78;68.63;101639.50;5051183;28;20496;-58
2022/09/04 09:29:26;;;;;;;13.38;7.60;;;;;;;26.50;65.00;101629.34;5051337;28;20072;-62
2022/09/04 09:32:33;;;;;;;8.68;5.43;;;;;;;26.82;66.89;101625.44;5051371;28;20052;-61
2022/09/04 09:35:35;;;;;;;9.93;6.00;;;;;;;27.20;63.65;101635.22;5051299;28;20091;-61
2022/09/04 09:38:48;;;;;;;10.38;6.32;;;;;;;27.36;62.91;101634.16;5051072;28;20471;-62
2022/09/04 09:41:43;;;;;;;9.10;5.67;;;;;;;27.45;63.05;101627.59;5053482;28;20495;-58
2022/09/04 09:44:51;;;;;;;11.60;6.13;;;;;;;27.55;64.91;101631.84;5054527;28;20057;-59
2022/09/04 09:48:12;;;;;;;8.93;5.50;;;;;;;28.05;62.35;101626.47;5041942;28;20102;-57
2022/09/04 09:51:29;;;;;;;9.85;5.38;;;;;;;28.19;61.76;101627.38;5012264;28;20057;-59
2022/09/04 09:54:33;;;;;;;9.55;5.40;;;;;;;28.27;59.36;101624.50;5008307;28;20116;-63
2022/09/04 09:57:54;;;;;;;8.85;5.25;;;;;;;28.61;58.66;101633.63;5054871;28;20045;-62
2022/09/04 10:00:26;;;;;;;7.88;5.50;;;;;;;28.63;58.26;101631.56;5054585;28;20045;-62
2022/09/04 10:03:31;;;;;;;8.13;4.53;;;;;;;28.44;56.52;101627.72;5054429;28;20049;-62
2022/09/04 10:06:34;;;;;;;6.13;3.50;;;;;;;28.80;56.85;101634.78;5054220;28;20045;-58
2022/09/04 10:09:39;;;;;;;7.82;3.75;;;;;;;29.11;55.54;101631.56;5054002;28;20045;-57
2022/09/04 10:12:41;;;;;;;7.18;3.88;;;;;;;29.32;55.05;101630.56;5054168;28;20053;-57
2022/09/04 10:15:37;;;;;;;7.07;4.57;;;;;;;29.42;54.76;101632.88;5054153;28;20045;-59
2022/09/04 10:18:44;;;;;;;7.85;3.58;;;;;;;29.62;53.81;101624.75;5054092;28;20045;-58
2022/09/04 10:21:53;;;;;;;7.07;3.58;;;;;;;29.61;51.25;101627.69;5054003;28;20045;-60
2022/09/04 10:24:53;;;;;;;6.72;3.72;;;;;;;29.64;50.73;101622.69;5038812;28;20411;-62
2022/09/04 10:27:43;;;;;;;6.75;3.90;;;;;;;29.55;51.25;101628.53;5053636;28;20045;-57
2022/09/04 10:30:17;;;;;;;6.55;3.38;;;;;;;29.78;51.23;101625.41;5052326;28;20056;-58
2022/09/04 10:33:06;;;;;;;6.20;2.70;;;;;;;29.82;51.11;101632.06;5053923;28;20049;-58
2022/09/04 10:35:53;;;;;;;7.03;3.03;;;;;;;30.32;50.97;101624.31;5054087;28;20045;-62
2022/09/04 10:38:27;;;;;;;8.25;3.25;;;;;;;30.68;48.42;101619.41;5053835;28;20550;-58
2022/09/04 10:41:31;;;;;;;7.15;3.38;;;;;;;30.61;48.16;101621.28;5053644;28;20049;-60
2022/09/04 10:44:43;;;;;;;6.47;3.35;;;;;;;30.44;48.34;101624.47;5052982;28;20068;-61
2022/09/04 10:47:51;;;;;;;7.27;3.60;;;;;;;30.76;49.20;101629.16;5034426;28;20122;-62
2022/09/04 10:50:45;;;;;;;5.90;3.13;;;;;;;31.03;47.84;101621.72;5054150;28;20124;-61
2022/09/04 10:53:53;;;;;;;7.60;3.30;;;;;;;31.56;46.35;101619.72;5051566;28;20064;-58
2022/09/04 10:56:28;;;;;;;4.45;2.58;;;;;;;31.25;45.60;101618.69;5033497;28;20060;-58
2022/09/04 10:59:22;;;;;;;4.60;2.10;;;;;;;31.35;44.14;101619.03;5053484;28;20061;-61
2022/09/04 11:02:31;;;;;;;5.15;2.28;;;;;;;31.80;44.65;101624.31;5051007;28;20110;-61
2022/09/04 11:05:17;;;;;;;5.55;2.47;;;;;;;31.61;43.46;101619.91;5053408;28;20129;-58
2022/09/04 11:08:02;;;;;;;5.65;2.63;;;;;;;31.56;44.09;101620.53;5053064;28;20075;-58
2022/09/04 11:10:56;;;;;;;6.88;2.47;;;;;;;31.42;44.60;101617.09;5053327;28;20090;-61
2022/09/04 11:14:05;;;;;;;5.47;2.30;;;;;;;31.91;43.28;101611.88;5053172;28;20052;-58
2022/09/04 11:16:54;;;;;;;6.68;2.40;;;;;;;31.28;43.70;101607.41;5053215;28;20171;-62
2022/09/04 11:20:06;;;;;;;5.35;2.70;;;;;;;30.89;44.08;101617.41;5053027;28;20053;-60
2022/09/04 11:23:13;;;;;;;5.13;2.75;;;;;;;30.76;45.10;101619.16;5053481;28;20118;-60
2022/09/04 11:26:29;;;;;;;7.00;2.88;;;;;;;30.87;44.14;101617.63;5052742;28;20045;-58
2022/09/04 11:29:12;;;;;;;5.15;2.30;;;;;;;30.67;44.65;101621.25;5044188;28;20061;-61
2022/09/04 11:32:06;;;;;;;6.53;3.03;;;;;;;30.70;44.49;101616.47;5053150;28;20044;-59
2022/09/04 11:35:12;;;;;;;5.32;2.78;;;;;;;30.51;45.64;101614.47;5052756;28;20057;-61
2022/09/04 11:37:59;;;;;;;5.50;2.65;;;;;;;29.84;46.75;101616.41;5053063;28;20119;-60
2022/09/04 11:40:55;;;;;;;6.10;2.67;;;;;;;29.46;46.53;101620.59;5052313;28;20057;-59
2022/09/04 11:43:46;;;;;;;4.63;2.45;;;;;;;29.62;46.37;101613.09;5036557;28;20067;-59
2022/09/04 11:46:37;;;;;;;4.63;2.40;;;;;;;29.61;46.54;101616.84;5052607;28;20045;-62
2022/09/04 11:49:30;;;;;;;5.18;2.10;;;;;;;29.71;46.99;101622.69;5051977;28;20049;-62
2022/09/04 11:52:06;;;;;;;3.65;2.00;;;;;;;29.59;46.61;101618.94;5052517;28;20049;-61
2022/09/04 11:55:09;;;;;;;6.75;2.78;;;;;;;29.58;46.99;101614.56;5052327;28;20045;-59
2022/09/04 11:57:52;;;;;;;4.78;2.47;;;;;;;29.34;47.68;101625.78;5052246;28;20037;-61
2022/09/04 12:00:20;;;;;;;;;;;;;;;29.56;48.76;101616.63;5052746;28;20044;-58
2022/09/04 12:03:10;;;;;;;5.13;2.45;;;;;;;29.58;48.49;101617.28;5051704;28;19921;-60
2022/09/04 12:06:21;;;;;;;6.07;2.55;;;;;;;29.75;46.91;101623.94;5050930;28;20057;-58
2022/09/04 12:09:26;;;;;;;7.60;2.60;;;;;;;29.67;47.57;101621.44;5041798;28;20065;-57
2022/09/04 12:12:27;;;;;;;5.10;2.63;;;;;;;29.73;47.14;101625.19;5051796;28;20048;-58
2022/09/04 12:15:27;;;;;;;4.63;2.25;;;;;;;29.61;47.41;101620.38;5052060;28;20057;-58
2022/09/04 12:18:21;;;;;;;6.68;2.20;;;;;;;29.60;46.89;101629.56;5052148;28;20400;-61
2022/09/04 12:21:20;;;;;;;4.35;2.25;;;;;;;29.49;46.73;101622.91;5052063;28;20037;-59
2022/09/04 12:24:29;;;;;;;7.82;2.50;;;;;;;29.47;48.67;101637.69;5052153;28;20526;-60
2022/09/04 12:27:21;;;;;;;5.07;2.08;;;;;;;29.58;48.13;101631.63;5035974;28;20049;-60
2022/09/04 12:30:05;;;;;;;9.57;2.58;;;;;;;29.80;46.53;101624.13;5051462;28;20514;-58
2022/09/04 12:33:06;;;;;;;8.57;2.67;;;;;;;29.89;46.27;101623.94;5052219;28;20404;-61
2022/09/04 12:35:55;;;;;;;6.47;2.55;;;;;;;30.25;47.50;101625.34;5052311;28;20060;-59
2022/09/04 12:38:51;;;;;;;5.93;2.45;;;;;;;30.72;44.36;101626.06;5050697;28;20049;-61
2022/09/04 12:41:30;;;;;;;6.07;2.75;;;;;;;30.51;43.52;101628.03;5051144;28;20049;-61